Time;durP1;ratioP1;P1;durP2;ratioP2;P2;SDS_P1;SDS_P2;PMS_P1;PMS_P2;Temp;Humidity;BMP_temperature;BMP_pressure;BME280_temperature;BME280_humidity;BME280_pressure;Samples;Min_cycle;Max_cycle;Signal;HPM_P1;HPM_P2
2024/01/20 00:01:15;;;;;;;;;;;;;;;;;;5029805;28;19916;-75
2024/01/20 00:03:41;;;;;;;;;;;;;;;;;;5026496;28;19909;-75
2024/01/20 00:06:06;;;;;;;;;;;;;;;;;;5025135;28;20016;-74
2024/01/20 00:08:32;;;;;;;;;;;;;;;;;;5029956;28;19944;-74
2024/01/20 00:10:58;;;;;;;;;;;;;;;;;;5035309;28;19909;-74
2024/01/20 00:13:24;;;;;;;;;;;;;;;;;;5034301;28;19952;-74
2024/01/20 00:15:50;;;;;;;;;;;;;;;;;;5014739;28;20380;-74
2024/01/20 00:18:16;;;;;;;;;;;;;;;;;;5009655;28;19913;-74
2024/01/20 00:20:42;;;;;;;;;;;;;;;;;;5025243;28;19910;-74
2024/01/20 00:23:08;;;;;;;;;;;;;;;;;;5022868;28;19909;-74
2024/01/20 00:25:34;;;;;;;;;;;;;;;;;;5013263;28;20034;-75
2024/01/20 00:28:01;;;;;;;;;;;;;;;;;;5035866;28;20283;-74
2024/01/20 00:30:27;;;;;;;;;;;;;;;;;;5024230;28;20234;-74
2024/01/20 00:32:52;;;;;;;;;;;;;;;;;;5013447;28;19913;-74
2024/01/20 00:35:18;;;;;;;;;;;;;;;;;;5008719;28;20004;-74
2024/01/20 00:37:44;;;;;;;;;;;;;;;;;;5020859;28;19909;-74
2024/01/20 00:40:10;;;;;;;;;;;;;;;;;;5008535;28;19988;-74
2024/01/20 00:42:36;;;;;;;;;;;;;;;;;;5042540;28;20366;-75
2024/01/20 00:45:02;;;;;;;;;;;;;;;;;;5039942;28;19909;-74
2024/01/20 00:47:28;;;;;;;;;;;;;;;;;;5031007;28;19909;-75
2024/01/20 00:49:54;;;;;;;;;;;;;;;;;;5018265;28;19948;-74
2024/01/20 00:52:20;;;;;;;;;;;;;;;;;;5019724;28;19967;-75
2024/01/20 00:54:46;;;;;;;;;;;;;;;;;;5021533;28;19909;-74
2024/01/20 00:57:12;;;;;;;;;;;;;;;;;;5045393;28;19921;-74
2024/01/20 00:59:38;;;;;;;;;;;;;;;;;;5039995;28;20371;-74
2024/01/20 01:02:04;;;;;;;;;;;;;;;;;;5048659;28;19909;-75
2024/01/20 01:04:30;;;;;;;;;;;;;;;;;;5055315;28;20373;-75
2024/01/20 01:06:56;;;;;;;;;;;;;;;;;;5042356;28;19913;-74
2024/01/20 01:09:22;;;;;;;;;;;;;;;;;;5008267;28;19909;-75
2024/01/20 01:11:47;;;;;;;;;;;;;;;;;;5030260;28;19954;-75
2024/01/20 01:14:13;;;;;;;;;;;;;;;;;;5019928;28;19909;-75
2024/01/20 01:16:39;;;;;;;;;;;;;;;;;;5043966;28;19917;-75
2024/01/20 01:19:05;;;;;;;;;;;;;;;;;;5039947;28;19917;-75
2024/01/20 01:21:31;;;;;;;;;;;;;;;;;;5038858;28;19913;-75
2024/01/20 01:23:57;;;;;;;;;;;;;;;;;;5044727;28;19913;-75
2024/01/20 01:26:23;;;;;;;;;;;;;;;;;;5036337;28;20295;-75
2024/01/20 01:28:49;;;;;;;;;;;;;;;;;;5015445;28;19909;-75
2024/01/20 01:31:15;;;;;;;;;;;;;;;;;;5028644;28;19919;-75
2024/01/20 01:33:41;;;;;;;;;;;;;;;;;;5050435;28;20423;-75
2024/01/20 01:36:07;;;;;;;;;;;;;;;;;;5034977;28;19908;-75
2024/01/20 01:38:32;;;;;;;;;;;;;;;;;;5044790;28;19985;-74
2024/01/20 01:40:58;;;;;;;;;;;;;;;;;;5033559;28;20066;-75
2024/01/20 01:43:25;;;;;;;;;;;;;;;;;;5032137;28;19910;-75
2024/01/20 01:45:51;;;;;;;;;;;;;;;;;;5019404;28;19909;-75
2024/01/20 01:48:17;;;;;;;;;;;;;;;;;;5032600;28;20011;-75
2024/01/20 01:50:42;;;;;;;;;;;;;;;;;;5006452;28;19910;-75
2024/01/20 01:53:08;;;;;;;;;;;;;;;;;;5008127;28;19913;-75
2024/01/20 01:55:34;;;;;;;;;;;;;;;;;;5023602;28;19964;-74
2024/01/20 01:58:00;;;;;;;;;;;;;;;;;;5044136;28;19914;-75
2024/01/20 02:00:26;;;;;;;;;;;;;;;;;;5016799;28;20378;-75
2024/01/20 02:02:52;;;;;;;;;;;;;;;;;;5039911;28;19995;-75
2024/01/20 02:05:18;;;;;;;;;;;;;;;;;;5042740;28;19932;-75
2024/01/20 02:07:44;;;;;;;;;;;;;;;;;;5026600;28;19909;-75
2024/01/20 02:10:10;;;;;;;;;;;;;;;;;;5008213;28;20367;-74
2024/01/20 02:12:36;;;;;;;;;;;;;;;;;;5034702;28;19909;-74
2024/01/20 02:15:02;;;;;;;;;;;;;;;;;;5022138;28;19908;-74
2024/01/20 02:17:27;;;;;;;;;;;;;;;;;;5031552;28;19913;-74
2024/01/20 02:19:53;;;;;;;;;;;;;;;;;;5024358;28;19935;-74
2024/01/20 02:22:19;;;;;;;;;;;;;;;;;;5015881;28;19909;-75
2024/01/20 02:24:45;;;;;;;;;;;;;;;;;;5017929;28;20360;-75
2024/01/20 02:27:11;;;;;;;;;;;;;;;;;;5033840;28;20006;-75
2024/01/20 02:29:37;;;;;;;;;;;;;;;;;;5039531;28;19909;-74
2024/01/20 02:32:03;;;;;;;;;;;;;;;;;;5016183;28;19920;-74
2024/01/20 02:34:28;;;;;;;;;;;;;;;;;;5030933;28;19909;-74
2024/01/20 02:36:54;;;;;;;;;;;;;;;;;;5019721;28;19909;-75
2024/01/20 02:39:20;;;;;;;;;;;;;;;;;;5017839;28;20475;-74
2024/01/20 02:41:47;;;;;;;;;;;;;;;;;;5029112;28;19909;-74
2024/01/20 02:44:13;;;;;;;;;;;;;;;;;;5014168;28;19909;-74
2024/01/20 02:46:38;;;;;;;;;;;;;;;;;;5035126;28;19916;-74
2024/01/20 02:49:04;;;;;;;;;;;;;;;;;;5037362;28;19909;-74
2024/01/20 02:51:30;;;;;;;;;;;;;;;;;;5026833;28;19909;-74
2024/01/20 02:53:57;;;;;;;;;;;;;;;;;;5012593;28;19909;-74
2024/01/20 02:56:24;;;;;;;;;;;;;;;;;;5024321;28;19963;-75
2024/01/20 02:58:50;;;;;;;;;;;;;;;;;;5032231;28;19913;-75
2024/01/20 03:01:16;;;;;;;;;;;;;;;;;;5035669;28;20327;-75
2024/01/20 03:03:42;;;;;;;;;;;;;;;;;;5032203;28;19962;-75
2024/01/20 03:06:07;;;;;;;;;;;;;;;;;;5039697;28;20061;-75
2024/01/20 03:08:33;;;;;;;;;;;;;;;;;;5025365;28;19916;-75
2024/01/20 03:11:00;;;;;;;;;;;;;;;;;;5035876;28;19913;-75
2024/01/20 03:13:26;;;;;;;;;;;;;;;;;;5015677;28;19909;-75
2024/01/20 03:15:52;;;;;;;;;;;;;;;;;;5019283;28;19920;-75
2024/01/20 03:18:18;;;;;;;;;;;;;;;;;;5025122;28;20444;-75
2024/01/20 03:20:43;;;;;;;;;;;;;;;;;;5029595;28;19909;-74
2024/01/20 03:23:11;;;;;;;;;;;;;;;;;;5020303;28;21372;-74
2024/01/20 03:25:37;;;;;;;;;;;;;;;;;;5003990;28;19967;-75
2024/01/20 03:28:03;;;;;;;;;;;;;;;;;;5019696;28;20438;-75
2024/01/20 03:30:29;;;;;;;;;;;;;;;;;;5015662;28;19995;-75
2024/01/20 03:32:55;;;;;;;;;;;;;;;;;;5013900;28;20072;-74
2024/01/20 03:35:22;;;;;;;;;;;;;;;;;;5033945;28;19913;-74
2024/01/20 03:37:48;;;;;;;;;;;;;;;;;;5018358;28;19945;-74
2024/01/20 03:40:14;;;;;;;;;;;;;;;;;;5042713;28;19955;-75
2024/01/20 03:42:40;;;;;;;;;;;;;;;;;;5020941;28;20322;-75
2024/01/20 03:45:06;;;;;;;;;;;;;;;;;;5027477;28;20333;-74
2024/01/20 03:47:32;;;;;;;;;;;;;;;;;;5044635;28;19963;-75
2024/01/20 03:49:57;;;;;;;;;;;;;;;;;;5031644;28;20322;-75
2024/01/20 03:52:23;;;;;;;;;;;;;;;;;;5034794;28;19909;-75
2024/01/20 03:54:49;;;;;;;;;;;;;;;;;;5031679;28;19913;-75
2024/01/20 03:57:15;;;;;;;;;;;;;;;;;;5007291;28;19936;-74
2024/01/20 03:59:41;;;;;;;;;;;;;;;;;;5046201;28;19936;-75
2024/01/20 04:02:07;;;;;;;;;;;;;;;;;;5006929;28;20368;-75
2024/01/20 04:04:33;;;;;;;;;;;;;;;;;;5024253;28;19916;-74
2024/01/20 04:06:58;;;;;;;;;;;;;;;;;;5018621;28;19998;-75
2024/01/20 04:09:24;;;;;;;;;;;;;;;;;;5033537;28;19913;-74
2024/01/20 04:11:50;;;;;;;;;;;;;;;;;;5037216;28;20355;-74
2024/01/20 04:14:16;;;;;;;;;;;;;;;;;;5019501;28;19909;-74
2024/01/20 04:16:42;;;;;;;;;;;;;;;;;;5038539;28;19913;-75
2024/01/20 04:19:08;;;;;;;;;;;;;;;;;;5023173;28;19916;-74
2024/01/20 04:21:34;;;;;;;;;;;;;;;;;;5041459;28;19913;-74
2024/01/20 04:24:00;;;;;;;;;;;;;;;;;;5037043;28;19909;-74
2024/01/20 04:26:25;;;;;;;;;;;;;;;;;;5029174;28;19927;-74
2024/01/20 04:28:51;;;;;;;;;;;;;;;;;;5031492;28;20449;-74
2024/01/20 04:31:17;;;;;;;;;;;;;;;;;;5035949;28;19909;-74
2024/01/20 04:33:43;;;;;;;;;;;;;;;;;;5036177;28;19909;-75
2024/01/20 04:36:09;;;;;;;;;;;;;;;;;;5033282;28;19939;-75
2024/01/20 04:38:35;;;;;;;;;;;;;;;;;;5006432;28;20276;-75
2024/01/20 04:41:01;;;;;;;;;;;;;;;;;;5015064;28;19910;-74
2024/01/20 04:43:26;;;;;;;;;;;;;;;;;;5017943;28;20034;-74
2024/01/20 04:45:52;;;;;;;;;;;;;;;;;;5017401;28;19916;-74
2024/01/20 04:48:19;;;;;;;;;;;;;;;;;;5031494;28;19929;-74
2024/01/20 04:50:45;;;;;;;;;;;;;;;;;;5028965;28;19913;-75
2024/01/20 04:53:11;;;;;;;;;;;;;;;;;;5034924;28;19913;-74
2024/01/20 04:55:37;;;;;;;;;;;;;;;;;;5034311;28;19913;-74
2024/01/20 04:58:03;;;;;;;;;;;;;;;;;;5027873;28;20402;-74
2024/01/20 05:00:29;;;;;;;;;;;;;;;;;;5033157;28;19945;-74
2024/01/20 05:02:55;;;;;;;;;;;;;;;;;;5010606;28;20368;-74
2024/01/20 05:05:21;;;;;;;;;;;;;;;;;;5039218;28;19913;-74
2024/01/20 05:07:47;;;;;;;;;;;;;;;;;;5034439;28;19915;-75
2024/01/20 05:10:12;;;;;;;;;;;;;;;;;;5043060;28;19973;-74
2024/01/20 05:12:38;;;;;;;;;;;;;;;;;;5029392;28;20035;-74
2024/01/20 05:15:10;;;;;;;;;;;;;;;;;;5015610;28;19909;-74
2024/01/20 05:17:37;;;;;;;;;;;;;;;;;;5047600;28;20276;-74
2024/01/20 05:20:03;;;;;;;;;;;;;;;;;;5044848;28;19963;-74
2024/01/20 05:22:29;;;;;;;;;;;;;;;;;;5022231;28;19932;-75
2024/01/20 05:24:54;;;;;;;;;;;;;;;;;;5010152;28;19915;-75
2024/01/20 05:27:20;;;;;;;;;;;;;;;;;;5016756;28;19925;-74
2024/01/20 05:29:46;;;;;;;;;;;;;;;;;;5040413;28;19909;-74
2024/01/20 05:32:12;;;;;;;;;;;;;;;;;;5015494;28;19909;-74
2024/01/20 05:34:38;;;;;;;;;;;;;;;;;;5013215;28;19916;-74
2024/01/20 05:37:04;;;;;;;;;;;;;;;;;;5035516;28;19909;-74
2024/01/20 05:39:30;;;;;;;;;;;;;;;;;;5038817;28;20000;-74
2024/01/20 05:41:56;;;;;;;;;;;;;;;;;;5044388;28;20028;-75
2024/01/20 05:44:22;;;;;;;;;;;;;;;;;;5038494;28;19939;-75
2024/01/20 05:46:47;;;;;;;;;;;;;;;;;;5042914;28;19908;-76
2024/01/20 05:49:13;;;;;;;;;;;;;;;;;;5037262;28;19924;-74
2024/01/20 05:51:39;;;;;;;;;;;;;;;;;;5008112;28;19916;-74
2024/01/20 05:54:05;;;;;;;;;;;;;;;;;;5037657;28;20007;-75
2024/01/20 05:56:31;;;;;;;;;;;;;;;;;;5010186;28;20368;-75
2024/01/20 05:58:57;;;;;;;;;;;;;;;;;;5033954;28;19913;-74
2024/01/20 06:01:23;;;;;;;;;;;;;;;;;;5036944;28;19913;-75
2024/01/20 06:03:49;;;;;;;;;;;;;;;;;;5035661;28;19909;-75
2024/01/20 06:06:15;;;;;;;;;;;;;;;;;;5021281;28;20023;-75
2024/01/20 06:08:40;;;;;;;;;;;;;;;;;;5032967;28;19918;-75
2024/01/20 06:11:06;;;;;;;;;;;;;;;;;;5037561;28;20382;-75
2024/01/20 06:13:32;;;;;;;;;;;;;;;;;;5037280;28;19995;-74
2024/01/20 06:15:58;;;;;;;;;;;;;;;;;;5036926;28;19909;-75
2024/01/20 06:18:24;;;;;;;;;;;;;;;;;;5032778;28;19963;-75
2024/01/20 06:20:50;;;;;;;;;;;;;;;;;;5027900;28;20243;-75
2024/01/20 06:23:16;;;;;;;;;;;;;;;;;;5024257;28;19913;-75
2024/01/20 06:25:42;;;;;;;;;;;;;;;;;;5016172;28;19928;-75
2024/01/20 06:28:08;;;;;;;;;;;;;;;;;;5031632;28;20000;-75
2024/01/20 06:30:33;;;;;;;;;;;;;;;;;;5033884;28;19909;-75
2024/01/20 06:32:59;;;;;;;;;;;;;;;;;;5012474;28;19908;-75
2024/01/20 06:35:25;;;;;;;;;;;;;;;;;;5036737;28;19920;-75
2024/01/20 06:37:51;;;;;;;;;;;;;;;;;;5039115;28;19913;-74
2024/01/20 06:40:17;;;;;;;;;;;;;;;;;;5038210;28;19970;-74
2024/01/20 06:42:43;;;;;;;;;;;;;;;;;;5023954;28;19951;-76
2024/01/20 06:45:09;;;;;;;;;;;;;;;;;;5033738;28;19923;-75
2024/01/20 06:47:35;;;;;;;;;;;;;;;;;;5021745;28;19909;-74
2024/01/20 06:50:01;;;;;;;;;;;;;;;;;;5015737;28;20329;-74
2024/01/20 06:52:29;;;;;;;;;;;;;;;;;;5017897;28;19963;-74
2024/01/20 06:54:55;;;;;;;;;;;;;;;;;;5028241;28;19996;-74
2024/01/20 06:57:21;;;;;;;;;;;;;;;;;;5031262;28;20032;-75
2024/01/20 06:59:47;;;;;;;;;;;;;;;;;;5033544;28;19917;-75
2024/01/20 07:02:13;;;;;;;;;;;;;;;;;;5024462;28;19962;-73
2024/01/20 07:04:38;;;;;;;;;;;;;;;;;;5037036;28;20069;-74
2024/01/20 07:07:05;;;;;;;;;;;;;;;;;;5047922;28;19916;-74
2024/01/20 07:09:31;;;;;;;;;;;;;;;;;;5025685;28;20355;-74
2024/01/20 07:11:57;;;;;;;;;;;;;;;;;;5033451;28;19920;-75
2024/01/20 07:14:23;;;;;;;;;;;;;;;;;;5022300;28;20337;-75
2024/01/20 07:16:49;;;;;;;;;;;;;;;;;;5039901;28;19908;-74
2024/01/20 07:19:15;;;;;;;;;;;;;;;;;;5039132;28;20004;-75
2024/01/20 07:21:41;;;;;;;;;;;;;;;;;;5021303;28;20375;-74
2024/01/20 07:24:07;;;;;;;;;;;;;;;;;;5039887;28;19909;-75
2024/01/20 07:26:33;;;;;;;;;;;;;;;;;;5027682;28;20004;-75
2024/01/20 07:28:59;;;;;;;;;;;;;;;;;;5034526;28;19913;-74
2024/01/20 07:31:25;;;;;;;;;;;;;;;;;;5040035;28;20370;-74
2024/01/20 07:33:50;;;;;;;;;;;;;;;;;;5028147;28;19909;-75
2024/01/20 07:36:16;;;;;;;;;;;;;;;;;;5039171;28;19909;-74
2024/01/20 07:38:42;;;;;;;;;;;;;;;;;;5038723;28;19912;-75
2024/01/20 07:41:08;;;;;;;;;;;;;;;;;;5019228;28;19916;-74
2024/01/20 07:43:34;;;;;;;;;;;;;;;;;;5039476;28;20004;-73
2024/01/20 07:46:00;;;;;;;;;;;;;;;;;;5041774;28;19913;-75
2024/01/20 07:48:27;;;;;;;;;;;;;;;;;;5038106;28;19917;-75
2024/01/20 07:50:53;;;;;;;;;;;;;;;;;;5032612;28;19910;-74
2024/01/20 07:53:19;;;;;;;;;;;;;;;;;;5019542;28;20383;-74
2024/01/20 07:55:45;;;;;;;;;;;;;;;;;;5036309;28;19955;-75
2024/01/20 07:58:11;;;;;;;;;;;;;;;;;;5034899;28;20394;-75
2024/01/20 08:00:37;;;;;;;;;;;;;;;;;;5034943;28;20390;-75
2024/01/20 08:03:03;;;;;;;;;;;;;;;;;;5023391;28;19913;-74
2024/01/20 08:05:31;;;;;;;;;;;;;;;;;;5028374;28;20278;-74
2024/01/20 08:07:56;;;;;;;;;;;;;;;;;;5012114;28;20004;-75
2024/01/20 08:10:22;;;;;;;;;;;;;;;;;;5008350;28;20104;-74
2024/01/20 08:12:50;;;;;;;;;;;;;;;;;;5017700;28;19909;-74
2024/01/20 08:15:16;;;;;;;;;;;;;;;;;;5030155;28;20280;-75
2024/01/20 08:17:42;;;;;;;;;;;;;;;;;;5018052;28;19908;-74
2024/01/20 08:20:07;;;;;;;;;;;;;;;;;;5023929;28;19976;-75
2024/01/20 08:22:33;;;;;;;;;;;;;;;;;;5026036;28;20449;-75
2024/01/20 08:25:02;;;;;;;;;;;;;;;;;;5034927;28;19947;-75
2024/01/20 08:27:28;;;;;;;;;;;;;;;;;;5014451;28;20043;-74
2024/01/20 08:29:54;;;;;;;;;;;;;;;;;;5031811;28;19912;-75
2024/01/20 08:32:20;;;;;;;;;;;;;;;;;;5020676;28;20377;-75
2024/01/20 08:34:46;;;;;;;;;;;;;;;;;;5032205;28;19917;-75
2024/01/20 08:37:12;;;;;;;;;;;;;;;;;;5023567;28;20409;-75
2024/01/20 08:39:38;;;;;;;;;;;;;;;;;;5042645;28;19923;-75
2024/01/20 08:42:04;;;;;;;;;;;;;;;;;;5034932;28;19944;-75
2024/01/20 08:44:32;;;;;;;;;;;;;;;;;;5015119;28;19909;-75
2024/01/20 08:46:57;;;;;;;;;;;;;;;;;;5012329;28;19940;-75
2024/01/20 08:49:23;;;;;;;;;;;;;;;;;;5027039;28;20419;-75
2024/01/20 08:51:49;;;;;;;;;;;;;;;;;;5033353;28;20044;-75
2024/01/20 08:54:16;;;;;;;;;;;;;;;;;;5037192;28;19926;-75
2024/01/20 08:56:41;;;;;;;;;;;;;;;;;;5008306;28;19916;-75
2024/01/20 08:59:07;;;;;;;;;;;;;;;;;;5033338;28;20394;-75
2024/01/20 09:01:33;;;;;;;;;;;;;;;;;;5027610;28;19917;-75
2024/01/20 09:04:01;;;;;;;;;;;;;;;;;;5008086;28;20280;-74
2024/01/20 09:06:26;;;;;;;;;;;;;;;;;;5020611;28;19909;-74
2024/01/20 09:08:52;;;;;;;;;;;;;;;;;;5035873;28;19909;-75
2024/01/20 09:11:18;;;;;;;;;;;;;;;;;;5033336;28;19996;-74
2024/01/20 09:13:45;;;;;;;;;;;;;;;;;;5028958;28;19909;-74
2024/01/20 09:16:11;;;;;;;;;;;;;;;;;;5035771;28;19954;-75
2024/01/20 09:18:37;;;;;;;;;;;;;;;;;;5040591;28;19979;-75
2024/01/20 09:21:02;;;;;;;;;;;;;;;;;;5018783;28;19913;-74
2024/01/20 09:23:28;;;;;;;;;;;;;;;;;;5019280;28;19913;-75
2024/01/20 09:25:54;;;;;;;;;;;;;;;;;;5050636;23;19997;-79
2024/01/20 09:28:20;;;;;;;;;;;;;;;;;;5018260;28;19939;-78
2024/01/20 09:30:46;;;;;;;;;;;;;;;;;;5044066;28;19909;-77
2024/01/20 09:33:12;;;;;;;;;;;;;;;;;;5026907;28;20334;-78
2024/01/20 09:35:38;;;;;;;;;;;;;;;;;;5038084;28;19909;-80
2024/01/20 09:38:04;;;;;;;;;;;;;;;;;;5032229;28;19916;-80
2024/01/20 09:40:32;;;;;;;;;;;;;;;;;;5037055;28;19909;-80
2024/01/20 09:42:57;;;;;;;;;;;;;;;;;;5051272;28;19917;-80
2024/01/20 09:45:23;;;;;;;;;;;;;;;;;;5026707;28;19916;-78
2024/01/20 09:47:49;;;;;;;;;;;;;;;;;;5028522;28;19904;-78
2024/01/20 09:50:15;;;;;;;;;;;;;;;;;;5059819;28;20348;-78
2024/01/20 09:52:41;;;;;;;;;;;;;;;;;;5044216;28;19976;-78
2024/01/20 09:55:07;;;;;;;;;;;;;;;;;;5053063;28;20390;-80
2024/01/20 09:57:33;;;;;;;;;;;;;;;;;;5062561;28;20028;-78
2024/01/20 09:59:59;;;;;;;;;;;;;;;;;;5025346;28;20372;-78
2024/01/20 10:02:25;;;;;;;;;;;;;;;;;;5035210;28;19894;-78
2024/01/20 10:04:50;;;;;;;;;;;;;;;;;;5038670;28;19909;-80
2024/01/20 10:07:16;;;;;;;;;;;;;;;;;;5059038;28;19928;-78
2024/01/20 10:09:42;;;;;;;;;;;;;;;;;;5049004;28;19917;-79
2024/01/20 10:12:08;;;;;;;;;;;;;;;;;;5043590;28;19909;-79
2024/01/20 10:14:34;;;;;;;;;;;;;;;;;;5044402;28;19920;-80
2024/01/20 10:17:00;;;;;;;;;;;;;;;;;;5041343;28;19916;-79
2024/01/20 10:19:26;;;;;;;;;;;;;;;;;;5056287;28;19971;-78
2024/01/20 10:21:52;;;;;;;;;;;;;;;;;;5044826;28;19920;-80
2024/01/20 10:24:23;;;;;;;;;;;;;;;;;;5040450;28;19948;-79
2024/01/20 10:26:49;;;;;;;;;;;;;;;;;;5040845;28;19924;-80
2024/01/20 10:29:14;;;;;;;;;;;;;;;;;;5033180;28;20302;-80
2024/01/20 10:31:41;;;;;;;;;;;;;;;;;;5027643;28;19909;-80
2024/01/20 10:34:06;;;;;;;;;;;;;;;;;;5017741;28;20375;-80
2024/01/20 10:36:32;;;;;;;;;;;;;;;;;;5016572;28;19917;-81
2024/01/20 10:38:58;;;;;;;;;;;;;;;;;;5017376;28;19966;-79
2024/01/20 10:41:24;;;;;;;;;;;;;;;;;;5025004;28;20360;-78
2024/01/20 10:43:50;;;;;;;;;;;;;;;;;;5049912;28;19924;-78
2024/01/20 10:46:16;;;;;;;;;;;;;;;;;;5026656;28;19909;-79
2024/01/20 10:48:42;;;;;;;;;;;;;;;;;;5039607;28;20112;-80
2024/01/20 10:51:08;;;;;;;;;;;;;;;;;;5014120;28;20363;-81
2024/01/20 10:53:34;;;;;;;;;;;;;;;;;;5029414;28;19916;-80
2024/01/20 10:56:00;;;;;;;;;;;;;;;;;;5022805;28;19972;-80
2024/01/20 10:58:26;;;;;;;;;;;;;;;;;;5031238;28;19913;-80
2024/01/20 11:00:52;;;;;;;;;;;;;;;;;;5036840;28;20256;-80
2024/01/20 11:03:18;;;;;;;;;;;;;;;;;;5010263;28;19967;-79
2024/01/20 11:05:43;;;;;;;;;;;;;;;;;;5016702;28;20281;-78
2024/01/20 11:08:09;;;;;;;;;;;;;;;;;;5035803;28;19956;-80
2024/01/20 11:10:35;;;;;;;;;;;;;;;;;;5037990;28;19909;-80
2024/01/20 11:13:01;;;;;;;;;;;;;;;;;;5051834;28;19909;-80
2024/01/20 11:15:27;;;;;;;;;;;;;;;;;;5036360;28;20364;-80
2024/01/20 11:17:53;;;;;;;;;;;;;;;;;;5025790;28;20409;-78
2024/01/20 11:20:19;;;;;;;;;;;;;;;;;;5031948;28;19913;-80
2024/01/20 11:22:45;;;;;;;;;;;;;;;;;;5041167;28;19935;-77
2024/01/20 11:25:12;;;;;;;;;;;;;;;;;;5052692;28;19929;-79
2024/01/20 11:27:38;;;;;;;;;;;;;;;;;;5038208;28;19917;-80
2024/01/20 11:30:04;;;;;;;;;;;;;;;;;;5032619;28;19909;-80
2024/01/20 11:32:30;;;;;;;;;;;;;;;;;;5039152;28;19908;-79
2024/01/20 11:34:56;;;;;;;;;;;;;;;;;;5048197;28;20382;-79
2024/01/20 11:37:22;;;;;;;;;;;;;;;;;;5050957;28;19978;-80
2024/01/20 11:39:48;;;;;;;;;;;;;;;;;;5038842;28;19940;-78
2024/01/20 11:42:14;;;;;;;;;;;;;;;;;;5039193;28;19914;-78
2024/01/20 11:44:39;;;;;;;;;;;;;;;;;;5028608;28;19917;-79
2024/01/20 11:47:05;;;;;;;;;;;;;;;;;;5028515;28;19976;-80
2024/01/20 11:49:31;;;;;;;;;;;;;;;;;;5024581;28;19917;-79
2024/01/20 11:51:57;;;;;;;;;;;;;;;;;;5036564;28;19914;-79
2024/01/20 11:54:23;;;;;;;;;;;;;;;;;;5038628;28;19916;-77
2024/01/20 11:56:49;;;;;;;;;;;;;;;;;;5025133;28;20290;-78
2024/01/20 11:59:15;;;;;;;;;;;;;;;;;;5050794;28;19967;-79
2024/01/20 12:01:41;;;;;;;;;;;;;;;;;;5015925;28;20000;-78
2024/01/20 12:04:07;;;;;;;;;;;;;;;;;;5053150;28;19924;-79
2024/01/20 12:06:33;;;;;;;;;;;;;;;;;;5027339;28;20446;-79
2024/01/20 12:08:59;;;;;;;;;;;;;;;;;;5022752;28;20409;-79
2024/01/20 12:11:25;;;;;;;;;;;;;;;;;;5044423;28;19912;-79
2024/01/20 12:13:51;;;;;;;;;;;;;;;;;;5045577;28;19912;-79
2024/01/20 12:16:17;;;;;;;;;;;;;;;;;;5044523;28;19958;-79
2024/01/20 12:18:43;;;;;;;;;;;;;;;;;;5038026;28;19913;-79
2024/01/20 12:21:09;;;;;;;;;;;;;;;;;;5047043;28;19959;-79
2024/01/20 12:23:35;;;;;;;;;;;;;;;;;;5036743;28;19909;-79
2024/01/20 12:26:01;;;;;;;;;;;;;;;;;;5045120;28;19913;-77
2024/01/20 12:28:27;;;;;;;;;;;;;;;;;;5033464;28;19956;-78
2024/01/20 12:30:53;;;;;;;;;;;;;;;;;;5025746;28;19920;-79
2024/01/20 12:33:18;;;;;;;;;;;;;;;;;;5036699;28;19940;-79
2024/01/20 12:35:45;;;;;;;;;;;;;;;;;;5046516;28;19909;-79
2024/01/20 12:38:10;;;;;;;;;;;;;;;;;;5034089;28;20363;-79
2024/01/20 12:40:36;;;;;;;;;;;;;;;;;;5027781;28;19984;-79
2024/01/20 12:43:02;;;;;;;;;;;;;;;;;;5028964;28;19909;-79
2024/01/20 12:45:28;;;;;;;;;;;;;;;;;;5028041;28;19917;-79
2024/01/20 12:47:54;;;;;;;;;;;;;;;;;;5045260;28;19963;-78
2024/01/20 12:50:20;;;;;;;;;;;;;;;;;;5022961;28;19909;-78
2024/01/20 12:52:46;;;;;;;;;;;;;;;;;;5057219;28;19996;-78
2024/01/20 12:55:12;;;;;;;;;;;;;;;;;;5058514;28;20803;-79
2024/01/20 12:57:38;;;;;;;;;;;;;;;;;;5041895;28;19919;-79
2024/01/20 13:00:04;;;;;;;;;;;;;;;;;;5032809;28;19897;-79
2024/01/20 13:02:30;;;;;;;;;;;;;;;;;;5030720;28;19919;-79
2024/01/20 13:04:56;;;;;;;;;;;;;;;;;;5058931;28;19915;-79
2024/01/20 13:07:22;;;;;;;;;;;;;;;;;;5032829;28;19910;-79
2024/01/20 13:09:48;;;;;;;;;;;;;;;;;;5025070;28;19924;-78
2024/01/20 13:12:13;;;;;;;;;;;;;;;;;;5041900;28;19909;-78
2024/01/20 13:14:41;;;;;;;;;;;;;;;;;;5054715;28;19910;-78
2024/01/20 13:17:07;;;;;;;;;;;;;;;;;;5023069;28;19916;-78
2024/01/20 13:19:33;;;;;;;;;;;;;;;;;;5051807;28;20353;-79
2024/01/20 13:21:59;;;;;;;;;;;;;;;;;;5056565;28;19968;-79
2024/01/20 13:24:25;;;;;;;;;;;;;;;;;;5029438;28;19950;-79
2024/01/20 13:26:51;;;;;;;;;;;;;;;;;;5028727;28;19917;-79
2024/01/20 13:29:17;;;;;;;;;;;;;;;;;;5030251;28;19912;-79
2024/01/20 13:31:43;;;;;;;;;;;;;;;;;;5035515;28;19968;-80
2024/01/20 13:34:09;;;;;;;;;;;;;;;;;;5038561;28;20290;-79
2024/01/20 13:36:35;;;;;;;;;;;;;;;;;;5050885;28;19999;-79
2024/01/20 13:39:04;;;;;;;;;;;;;;;;;;5053743;28;19931;-78
2024/01/20 13:41:31;;;;;;;;;;;;;;;;;;5023547;28;20438;-79
2024/01/20 13:43:56;;;;;;;;;;;;;;;;;;5044522;28;19909;-79
2024/01/20 13:46:22;;;;;;;;;;;;;;;;;;5045033;28;19909;-79
2024/01/20 13:48:48;;;;;;;;;;;;;;;;;;5041603;28;19909;-78
2024/01/20 13:51:14;;;;;;;;;;;;;;;;;;5053399;28;19932;-79
2024/01/20 13:53:40;;;;;;;;;;;;;;;;;;5048901;28;20351;-81
2024/01/20 13:56:06;;;;;;;;;;;;;;;;;;5027596;28;19909;-77
2024/01/20 13:58:32;;;;;;;;;;;;;;;;;;5046195;28;19913;-78
2024/01/20 14:00:58;;;;;;;;;;;;;;;;;;5049275;28;20003;-77
2024/01/20 14:03:24;;;;;;;;;;;;;;;;;;5032668;28;19910;-79
2024/01/20 14:05:50;;;;;;;;;;;;;;;;;;5054214;28;19913;-79
2024/01/20 14:08:16;;;;;;;;;;;;;;;;;;5060932;28;19909;-78
2024/01/20 14:10:42;;;;;;;;;;;;;;;;;;5031003;28;19910;-79
2024/01/20 14:13:08;;;;;;;;;;;;;;;;;;5033313;28;19913;-79
2024/01/20 14:15:38;;;;;;;;;;;;;;;;;;5058626;28;19909;-79
2024/01/20 14:18:04;;;;;;;;;;;;;;;;;;5041688;28;19948;-79
2024/01/20 14:20:30;;;;;;;;;;;;;;;;;;5020131;28;19920;-79
2024/01/20 14:22:56;;;;;;;;;;;;;;;;;;5053217;28;19912;-78
2024/01/20 14:25:22;;;;;;;;;;;;;;;;;;5046634;28;19919;-78
2024/01/20 14:27:47;;;;;;;;;;;;;;;;;;5054589;28;19974;-78
2024/01/20 14:30:13;;;;;;;;;;;;;;;;;;5042849;28;20265;-79
2024/01/20 14:32:39;;;;;;;;;;;;;;;;;;5049295;28;19928;-79
2024/01/20 14:35:05;;;;;;;;;;;;;;;;;;5041037;28;19909;-79
2024/01/20 14:37:31;;;;;;;;;;;;;;;;;;5029523;28;19956;-79
2024/01/20 14:39:57;;;;;;;;;;;;;;;;;;5044700;28;19939;-78
2024/01/20 14:42:23;;;;;;;;;;;;;;;;;;5053560;28;19908;-79
2024/01/20 14:44:49;;;;;;;;;;;;;;;;;;5046551;28;19909;-78
2024/01/20 14:47:15;;;;;;;;;;;;;;;;;;5038461;28;19944;-77
2024/01/20 14:49:41;;;;;;;;;;;;;;;;;;5052777;28;19919;-79
2024/01/20 14:52:07;;;;;;;;;;;;;;;;;;5038952;28;19959;-78
2024/01/20 14:54:33;;;;;;;;;;;;;;;;;;5052514;28;19908;-79
2024/01/20 14:56:59;;;;;;;;;;;;;;;;;;5052771;28;19917;-79
2024/01/20 14:59:24;;;;;;;;;;;;;;;;;;5057370;28;19935;-78
2024/01/20 15:01:50;;;;;;;;;;;;;;;;;;5040484;28;19916;-78
2024/01/20 15:04:16;;;;;;;;;;;;;;;;;;5025453;28;19909;-77
2024/01/20 15:06:42;;;;;;;;;;;;;;;;;;5033436;28;19940;-77
2024/01/20 15:09:08;;;;;;;;;;;;;;;;;;5062789;28;19909;-78
2024/01/20 15:11:34;;;;;;;;;;;;;;;;;;5042809;28;19991;-78
2024/01/20 15:14:01;;;;;;;;;;;;;;;;;;5063625;28;20212;-78
2024/01/20 15:16:27;;;;;;;;;;;;;;;;;;5027322;28;19915;-79
2024/01/20 15:18:52;;;;;;;;;;;;;;;;;;5053673;28;19984;-78
2024/01/20 15:21:18;;;;;;;;;;;;;;;;;;5037422;28;19909;-79
2024/01/20 15:23:44;;;;;;;;;;;;;;;;;;5034373;28;19916;-79
2024/01/20 15:26:10;;;;;;;;;;;;;;;;;;5051584;22;19937;-77
2024/01/20 15:28:36;;;;;;;;;;;;;;;;;;4993028;28;19925;-77
2024/01/20 15:31:02;;;;;;;;;;;;;;;;;;5012627;28;19949;-76
2024/01/20 15:33:28;;;;;;;;;;;;;;;;;;4996208;28;19913;-77
2024/01/20 15:35:54;;;;;;;;;;;;;;;;;;4998492;28;19987;-77
2024/01/20 15:38:20;;;;;;;;;;;;;;;;;;5026028;28;19916;-79
2024/01/20 15:40:45;;;;;;;;;;;;;;;;;;5008160;28;19952;-76
2024/01/20 15:43:11;;;;;;;;;;;;;;;;;;5030461;28;19916;-77
2024/01/20 15:45:37;;;;;;;;;;;;;;;;;;5022884;28;20399;-76
2024/01/20 15:48:04;;;;;;;;;;;;;;;;;;5016670;28;20060;-77
2024/01/20 15:50:30;;;;;;;;;;;;;;;;;;5024446;28;19909;-76
2024/01/20 15:52:56;;;;;;;;;;;;;;;;;;5024288;28;20004;-76
2024/01/20 15:55:22;;;;;;;;;;;;;;;;;;5014041;28;20047;-76
2024/01/20 15:57:48;;;;;;;;;;;;;;;;;;5029986;28;19913;-76
2024/01/20 16:00:16;;;;;;;;;;;;;;;;;;5002900;28;19959;-77
2024/01/20 16:02:42;;;;;;;;;;;;;;;;;;5009878;28;19909;-77
2024/01/20 16:05:08;;;;;;;;;;;;;;;;;;5009067;28;19922;-77
2024/01/20 16:07:34;;;;;;;;;;;;;;;;;;5018404;28;19909;-76
2024/01/20 16:10:00;;;;;;;;;;;;;;;;;;5015596;28;19909;-78
2024/01/20 16:12:26;;;;;;;;;;;;;;;;;;5012584;28;19910;-77
2024/01/20 16:14:52;;;;;;;;;;;;;;;;;;4996859;28;19920;-79
2024/01/20 16:17:18;;;;;;;;;;;;;;;;;;5007315;28;19909;-78
2024/01/20 16:19:44;;;;;;;;;;;;;;;;;;5029125;28;19913;-76
2024/01/20 16:22:10;;;;;;;;;;;;;;;;;;4995860;28;19936;-79
2024/01/20 16:24:36;;;;;;;;;;;;;;;;;;5010460;28;19909;-76
2024/01/20 16:27:02;;;;;;;;;;;;;;;;;;5017088;28;19918;-76
2024/01/20 16:29:28;;;;;;;;;;;;;;;;;;5011699;28;19917;-76
2024/01/20 16:31:54;;;;;;;;;;;;;;;;;;5013369;28;20008;-76
2024/01/20 16:34:20;;;;;;;;;;;;;;;;;;5000214;28;19934;-76
2024/01/20 16:36:46;;;;;;;;;;;;;;;;;;5017437;28;19945;-76